Alexandria, IN

6:40 AM EDT on April 01, 2015 (GMT -0400)
Linwood, IN | | Change Station
CLOSE
Current Station
Personal Weather Station
Location: Anderson, IN
Elevation: 895 ft
Nearby Weather Stations

Elev 895 ft 40.19 °N, 85.69 °W | Updated 8 seconds ago

Clear
Clear
34.6 °F
Feels Like 29 °F
N
6.0
Wind Variable Wind from South
Gusts 7.0 mph

Today
High -- | Low -- °F
--% Chance of Precip.
Yesterday
High -- | Low -- °F
Precip. -- in
7:26 AM 8:06 PM
Waxing Gibbous, 92% visible
Pressure 30.02 in
Visibility 6.0 miles
Clouds Clear
Windchill 29 °F
Dew Point 31 °F
Humidity 87%
Rainfall 0.00 in
Snow Depth Not available.
UV 0.0 out of 12
Pollen 10.20 out of 12
Air Quality Not available.
Flu Activity Not available.
METAR KMIE 010953Z 17005KT 6SM BR CLR 03/01 A3002 RMK AO2 SLP165 T00280006

More Conditions Fewer Conditions

Pressure 30.02 in
Visibility 6.0 miles
Clouds Clear
Windchill 29 °F
Dew Point 31 °F
Humidity 87%
Rainfall 0.00 in
Snow Depth Not available.
UV 0.0 out of 12
Pollen 10.20 out of 12
Air Quality Not available.
Flu Activity Not available.
METAR KMIE 010953Z 17005KT 6SM BR CLR 03/01 A3002 RMK AO2 SLP165 T00280006

More Conditions Fewer Conditions

10-Day Weather Forecast

Almanac

Astronomy

Apr. 01, 2015 Rise Set
Actual Time
Civil Twilight
Nautical Twilight
Astronomical Twilight
Moon
Length of Visible Light
Length of Day
Tomorrow will be .
, % of the Moon is Illuminated

Today's Extremes

State Highs State Lows

Community

WunderPhotos

Upload Photos

1,809,934 photos uploaded!

WunderBlogs® & News

Nearby

Air Quality

  Air Quality AQ Index Pollutant
Not available.

Snow Depth

Station Depth Elevation

Earthquake Activity

City Distance Mag. Time & Date
Minimum magnitude displayed is 2.5.

Coastal Water Temperatures

Place Temperature

Stations

Nearby Weather Stations

Station Location Temp. Windchill Dew Point Humidity Wind Precip. Elev Updated Type